sensor_id;sensor_type;location;lat;lon;timestamp;noise_LAeq;noise_LA_min;noise_LA_max;noise_LA01;noise_LA95
60116;Laerm;62818;49.394;8.686;2023-02-01T00:00:38;78.37;44.87;86.47;;
60116;Laerm;62818;49.394;8.686;2023-02-01T00:01:38;78.83;45.07;88.02;;
60116;Laerm;62818;49.394;8.686;2023-02-01T00:02:39;78.30;45.30;86.53;;
60116;Laerm;62818;49.394;8.686;2023-02-01T00:03:40;54.72;45.14;79.00;;
60116;Laerm;62818;49.394;8.686;2023-02-01T00:04:41;78.90;44.76;87.09;;
60116;Laerm;62818;49.394;8.686;2023-02-01T00:05:41;78.93;45.04;88.02;;
60116;Laerm;62818;49.394;8.686;2023-02-01T00:06:42;78.27;44.97;86.18;;
60116;Laerm;62818;49.394;8.686;2023-02-01T00:07:42;77.70;44.97;86.29;;
60116;Laerm;62818;49.394;8.686;2023-02-01T00:08:43;78.39;44.69;86.57;;
60116;Laerm;62818;49.394;8.686;2023-02-01T00:09:43;78.38;44.90;87.95;;
60116;Laerm;62818;49.394;8.686;2023-02-01T00:10:44;78.47;45.01;86.91;;
60116;Laerm;62818;49.394;8.686;2023-02-01T00:11:44;78.43;44.69;86.51;;
60116;Laerm;62818;49.394;8.686;2023-02-01T00:12:45;78.34;44.69;86.23;;
60116;Laerm;62818;49.394;8.686;2023-02-01T00:13:46;78.81;44.87;87.52;;
60116;Laerm;62818;49.394;8.686;2023-02-01T00:14:47;78.36;44.82;86.07;;
60116;Laerm;62818;49.394;8.686;2023-02-01T00:15:48;78.10;45.27;86.66;;
60116;Laerm;62818;49.394;8.686;2023-02-01T00:16:49;78.95;45.11;87.01;;
60116;Laerm;62818;49.394;8.686;2023-02-01T00:17:54;78.12;44.90;86.40;;
60116;Laerm;62818;49.394;8.686;2023-02-01T00:19:07;77.80;44.87;87.03;;
60116;Laerm;62818;49.394;8.686;2023-02-01T00:20:09;78.95;44.87;86.94;;
60116;Laerm;62818;49.394;8.686;2023-02-01T00:21:11;78.66;45.01;86.73;;
60116;Laerm;62818;49.394;8.686;2023-02-01T00:22:11;79.26;45.97;88.91;;
60116;Laerm;62818;49.394;8.686;2023-02-01T00:23:12;78.15;44.35;86.44;;
60116;Laerm;62818;49.394;8.686;2023-02-01T00:24:13;78.32;45.11;86.19;;
60116;Laerm;62818;49.394;8.686;2023-02-01T00:25:13;78.39;44.58;86.27;;
60116;Laerm;62818;49.394;8.686;2023-02-01T00:26:18;78.04;44.69;86.21;;
60116;Laerm;62818;49.394;8.686;2023-02-01T00:27:19;79.02;44.47;87.04;;
60116;Laerm;62818;49.394;8.686;2023-02-01T00:28:21;79.07;44.62;87.10;;
60116;Laerm;62818;49.394;8.686;2023-02-01T00:29:22;78.73;45.01;86.93;;
60116;Laerm;62818;49.394;8.686;2023-02-01T00:30:22;78.75;44.90;86.80;;
60116;Laerm;62818;49.394;8.686;2023-02-01T00:31:23;78.50;44.65;86.64;;
60116;Laerm;62818;49.394;8.686;2023-02-01T00:32:23;78.51;44.87;87.05;;
60116;Laerm;62818;49.394;8.686;2023-02-01T00:33:24;78.53;45.36;86.84;;
60116;Laerm;62818;49.394;8.686;2023-02-01T00:34:24;78.66;44.73;87.32;;
60116;Laerm;62818;49.394;8.686;2023-02-01T00:35:25;78.35;44.73;86.65;;
60116;Laerm;62818;49.394;8.686;2023-02-01T00:36:25;78.24;44.76;86.33;;
60116;Laerm;62818;49.394;8.686;2023-02-01T00:37:26;78.54;44.62;87.19;;
60116;Laerm;62818;49.394;8.686;2023-02-01T00:38:28;78.25;44.90;86.46;;
60116;Laerm;62818;49.394;8.686;2023-02-01T00:39:29;77.79;47.54;86.34;;
60116;Laerm;62818;49.394;8.686;2023-02-01T00:40:29;78.90;47.06;87.90;;
60116;Laerm;62818;49.394;8.686;2023-02-01T00:41:29;78.94;45.23;88.07;;
60116;Laerm;62818;49.394;8.686;2023-02-01T00:42:30;78.62;44.76;87.08;;
60116;Laerm;62818;49.394;8.686;2023-02-01T00:43:33;79.21;45.54;87.97;;
60116;Laerm;62818;49.394;8.686;2023-02-01T00:44:34;79.08;45.07;87.77;;
60116;Laerm;62818;49.394;8.686;2023-02-01T00:45:35;79.11;44.35;87.78;;
60116;Laerm;62818;49.394;8.686;2023-02-01T00:46:36;79.15;45.04;89.86;;
60116;Laerm;62818;49.394;8.686;2023-02-01T00:47:36;79.27;44.80;89.90;;
60116;Laerm;62818;49.394;8.686;2023-02-01T00:48:38;78.81;44.94;87.01;;
60116;Laerm;62818;49.394;8.686;2023-02-01T00:49:41;46.95;44.54;60.07;;
60116;Laerm;62818;49.394;8.686;2023-02-01T00:50:42;78.68;45.04;86.47;;
60116;Laerm;62818;49.394;8.686;2023-02-01T00:51:43;79.30;44.76;87.18;;
60116;Laerm;62818;49.394;8.686;2023-02-01T00:52:43;78.78;44.90;86.86;;
60116;Laerm;62818;49.394;8.686;2023-02-01T00:53:44;78.99;44.80;87.09;;
60116;Laerm;62818;49.394;8.686;2023-02-01T00:54:45;78.58;44.94;86.95;;
60116;Laerm;62818;49.394;8.686;2023-02-01T00:55:47;78.24;44.80;86.40;;
60116;Laerm;62818;49.394;8.686;2023-02-01T00:56:48;78.05;44.83;86.38;;
60116;Laerm;62818;49.394;8.686;2023-02-01T00:57:49;79.08;44.90;86.98;;
60116;Laerm;62818;49.394;8.686;2023-02-01T00:58:49;78.82;45.11;87.20;;
60116;Laerm;62818;49.394;8.686;2023-02-01T00:59:49;79.07;45.01;87.89;;
60116;Laerm;62818;49.394;8.686;2023-02-01T01:00:50;78.63;45.07;87.77;;
60116;Laerm;62818;49.394;8.686;2023-02-01T01:02:00;78.54;44.76;87.21;;
60116;Laerm;62818;49.394;8.686;2023-02-01T01:03:00;78.62;44.54;86.61;;
60116;Laerm;62818;49.394;8.686;2023-02-01T01:04:01;78.29;44.65;86.23;;
60116;Laerm;62818;49.394;8.686;2023-02-01T01:05:01;78.21;44.58;86.53;;
60116;Laerm;62818;49.394;8.686;2023-02-01T01:06:07;78.18;44.73;86.97;;
60116;Laerm;62818;49.394;8.686;2023-02-01T01:07:08;78.55;44.47;86.62;;
60116;Laerm;62818;49.394;8.686;2023-02-01T01:08:08;78.58;44.87;87.24;;
60116;Laerm;62818;49.394;8.686;2023-02-01T01:09:09;77.88;44.43;86.11;;
60116;Laerm;62818;49.394;8.686;2023-02-01T01:10:10;78.60;45.04;87.28;;
60116;Laerm;62818;49.394;8.686;2023-02-01T01:11:15;78.51;44.65;87.09;;
60116;Laerm;62818;49.394;8.686;2023-02-01T01:12:16;79.03;44.80;86.81;;
60116;Laerm;62818;49.394;8.686;2023-02-01T01:13:17;78.78;44.73;87.23;;
60116;Laerm;62818;49.394;8.686;2023-02-01T01:14:17;78.61;44.76;87.02;;
60116;Laerm;62818;49.394;8.686;2023-02-01T01:15:18;78.62;44.62;86.85;;
60116;Laerm;62818;49.394;8.686;2023-02-01T01:16:21;78.23;44.83;86.63;;
60116;Laerm;62818;49.394;8.686;2023-02-01T01:17:22;78.92;44.94;87.17;;
60116;Laerm;62818;49.394;8.686;2023-02-01T01:18:22;78.65;45.01;87.08;;
60116;Laerm;62818;49.394;8.686;2023-02-01T01:19:23;78.60;44.80;87.35;;
60116;Laerm;62818;49.394;8.686;2023-02-01T01:20:23;78.33;44.65;86.81;;
60116;Laerm;62818;49.394;8.686;2023-02-01T01:21:25;78.81;45.27;88.90;;
60116;Laerm;62818;49.394;8.686;2023-02-01T01:22:26;79.33;45.36;87.11;;
60116;Laerm;62818;49.394;8.686;2023-02-01T01:23:27;78.50;45.20;86.82;;
60116;Laerm;62818;49.394;8.686;2023-02-01T01:24:28;78.59;45.20;86.43;;
60116;Laerm;62818;49.394;8.686;2023-02-01T01:25:28;77.76;44.65;86.22;;
60116;Laerm;62818;49.394;8.686;2023-02-01T01:26:30;78.87;44.31;87.42;;
60116;Laerm;62818;49.394;8.686;2023-02-01T01:27:30;78.68;44.03;86.95;;
60116;Laerm;62818;49.394;8.686;2023-02-01T01:28:31;79.04;44.51;87.53;;
60116;Laerm;62818;49.394;8.686;2023-02-01T01:29:31;78.07;44.82;86.30;;
60116;Laerm;62818;49.394;8.686;2023-02-01T01:30:34;78.59;45.33;88.43;;
60116;Laerm;62818;49.394;8.686;2023-02-01T01:31:35;79.26;45.11;87.22;;
60116;Laerm;62818;49.394;8.686;2023-02-01T01:32:35;78.40;45.14;87.00;;
60116;Laerm;62818;49.394;8.686;2023-02-01T01:33:36;78.38;44.58;86.64;;
60116;Laerm;62818;49.394;8.686;2023-02-01T01:34:37;78.75;44.39;87.02;;
60116;Laerm;62818;49.394;8.686;2023-02-01T01:35:37;78.29;44.62;86.16;;
60116;Laerm;62818;49.394;8.686;2023-02-01T01:36:38;78.91;44.51;87.47;;
60116;Laerm;62818;49.394;8.686;2023-02-01T01:37:39;78.73;44.73;86.70;;
60116;Laerm;62818;49.394;8.686;2023-02-01T01:38:40;78.29;44.31;86.39;;
60116;Laerm;62818;49.394;8.686;2023-02-01T01:39:41;77.76;44.87;86.16;;
60116;Laerm;62818;49.394;8.686;2023-02-01T01:40:45;78.53;44.58;87.67;;
60116;Laerm;62818;49.394;8.686;2023-02-01T01:41:46;79.06;44.87;87.59;;
60116;Laerm;62818;49.394;8.686;2023-02-01T01:42:46;77.98;44.73;86.22;;
60116;Laerm;62818;49.394;8.686;2023-02-01T01:45:33;77.29;45.33;86.30;;
60116;Laerm;62818;49.394;8.686;2023-02-01T01:46:38;77.78;45.54;87.13;;
60116;Laerm;62818;49.394;8.686;2023-02-01T01:47:44;79.23;45.36;86.70;;
60116;Laerm;62818;49.394;8.686;2023-02-01T01:49:30;77.23;44.76;86.60;;
60116;Laerm;62818;49.394;8.686;2023-02-01T01:50:47;76.32;44.39;86.14;;
60116;Laerm;62818;49.394;8.686;2023-02-01T01:51:56;78.35;44.65;87.77;;
60116;Laerm;62818;49.394;8.686;2023-02-01T01:53:01;79.21;44.80;87.08;;
60116;Laerm;62818;49.394;8.686;2023-02-01T01:54:20;77.37;44.62;86.31;;
60116;Laerm;62818;49.394;8.686;2023-02-01T01:55:24;78.49;44.58;87.00;;
60116;Laerm;62818;49.394;8.686;2023-02-01T01:56:27;78.82;44.54;87.66;;
60116;Laerm;62818;49.394;8.686;2023-02-01T01:57:35;78.60;44.65;87.47;;
60116;Laerm;62818;49.394;8.686;2023-02-01T01:58:37;78.72;44.27;87.13;;
60116;Laerm;62818;49.394;8.686;2023-02-01T01:59:42;78.73;44.47;87.21;;
60116;Laerm;62818;49.394;8.686;2023-02-01T02:00:47;78.11;44.94;86.18;;
60116;Laerm;62818;49.394;8.686;2023-02-01T02:01:48;46.09;44.69;56.64;;
60116;Laerm;62818;49.394;8.686;2023-02-01T02:02:57;77.96;44.62;86.55;;
60116;Laerm;62818;49.394;8.686;2023-02-01T02:04:00;79.25;44.58;90.32;;
60116;Laerm;62818;49.394;8.686;2023-02-01T02:05:01;79.08;44.80;87.55;;
60116;Laerm;62818;49.394;8.686;2023-02-01T02:06:06;79.19;45.04;87.55;;
60116;Laerm;62818;49.394;8.686;2023-02-01T02:07:21;77.59;44.54;86.46;;
60116;Laerm;62818;49.394;8.686;2023-02-01T02:08:26;78.53;44.58;86.93;;
60116;Laerm;62818;49.394;8.686;2023-02-01T02:09:27;78.44;44.90;86.33;;
60116;Laerm;62818;49.394;8.686;2023-02-01T02:10:28;78.45;44.94;86.70;;
60116;Laerm;62818;49.394;8.686;2023-02-01T02:11:47;77.62;46.23;87.03;;
60116;Laerm;62818;49.394;8.686;2023-02-01T02:12:48;78.47;45.17;86.39;;
60116;Laerm;62818;49.394;8.686;2023-02-01T02:13:53;79.18;45.17;88.04;;
60116;Laerm;62818;49.394;8.686;2023-02-01T02:14:55;78.87;44.62;86.84;;
60116;Laerm;62818;49.394;8.686;2023-02-01T02:24:17;76.07;44.90;86.31;;
60116;Laerm;62818;49.394;8.686;2023-02-01T02:30:58;76.77;44.58;87.15;;
60116;Laerm;62818;49.394;8.686;2023-02-01T02:35:02;78.30;44.65;89.93;;
60116;Laerm;62818;49.394;8.686;2023-02-01T02:36:17;78.48;44.87;89.29;;
60116;Laerm;62818;49.394;8.686;2023-02-01T02:37:45;77.94;44.62;88.91;;
60116;Laerm;62818;49.394;8.686;2023-02-01T02:42:01;78.50;44.58;87.42;;
60116;Laerm;62818;49.394;8.686;2023-02-01T02:43:39;76.18;44.69;86.29;;
60116;Laerm;62818;49.394;8.686;2023-02-01T02:45:40;75.46;44.43;86.49;;
60116;Laerm;62818;49.394;8.686;2023-02-01T02:47:13;77.54;44.58;87.44;;
60116;Laerm;62818;49.394;8.686;2023-02-01T02:51:41;76.52;44.62;86.76;;
60116;Laerm;62818;49.394;8.686;2023-02-01T02:53:12;77.32;44.58;89.74;;
60116;Laerm;62818;49.394;8.686;2023-02-01T02:54:37;83.35;45.11;108.67;;
60116;Laerm;62818;49.394;8.686;2023-02-01T02:55:47;79.02;45.20;87.08;;
60116;Laerm;62818;49.394;8.686;2023-02-01T02:56:52;79.42;44.83;87.31;;
60116;Laerm;62818;49.394;8.686;2023-02-01T02:58:13;53.32;44.51;70.27;;
60116;Laerm;62818;49.394;8.686;2023-02-01T02:59:35;78.44;44.31;87.62;;
60116;Laerm;62818;49.394;8.686;2023-02-01T03:00:57;77.34;44.47;86.36;;
60116;Laerm;62818;49.394;8.686;2023-02-01T03:02:17;77.69;44.73;86.55;;
60116;Laerm;62818;49.394;8.686;2023-02-01T03:03:40;77.99;44.62;87.28;;
60116;Laerm;62818;49.394;8.686;2023-02-01T03:05:00;47.63;44.65;57.75;;
60116;Laerm;62818;49.394;8.686;2023-02-01T03:06:00;79.51;44.72;87.46;;
60116;Laerm;62818;49.394;8.686;2023-02-01T03:08:44;46.86;44.80;49.83;;
60116;Laerm;62818;49.394;8.686;2023-02-01T03:09:48;78.69;45.42;87.83;;
60116;Laerm;62818;49.394;8.686;2023-02-01T03:11:07;78.98;45.01;90.82;;
60116;Laerm;62818;49.394;8.686;2023-02-01T03:12:13;78.98;45.07;89.53;;
60116;Laerm;62818;49.394;8.686;2023-02-01T03:13:53;77.89;44.87;90.80;;
60116;Laerm;62818;49.394;8.686;2023-02-01T03:15:03;78.16;44.58;90.68;;
60116;Laerm;62818;49.394;8.686;2023-02-01T03:16:40;77.06;44.76;87.50;;
60116;Laerm;62818;49.394;8.686;2023-02-01T03:17:45;78.63;44.94;86.80;;
60116;Laerm;62818;49.394;8.686;2023-02-01T03:18:52;47.85;44.73;57.79;;
60116;Laerm;62818;49.394;8.686;2023-02-01T03:19:59;86.36;44.65;109.02;;
60116;Laerm;62818;49.394;8.686;2023-02-01T03:21:10;78.80;45.04;90.24;;
60116;Laerm;62818;49.394;8.686;2023-02-01T03:22:17;78.59;44.94;87.03;;
60116;Laerm;62818;49.394;8.686;2023-02-01T03:23:23;78.12;45.11;86.35;;
60116;Laerm;62818;49.394;8.686;2023-02-01T03:25:44;78.94;45.23;87.12;;
60116;Laerm;62818;49.394;8.686;2023-02-01T03:27:05;77.93;45.31;86.92;;
60116;Laerm;62818;49.394;8.686;2023-02-01T03:28:10;78.55;45.20;89.40;;
60116;Laerm;62818;49.394;8.686;2023-02-01T03:29:18;78.90;44.97;89.46;;
60116;Laerm;62818;49.394;8.686;2023-02-01T03:31:23;78.91;44.90;87.63;;
60116;Laerm;62818;49.394;8.686;2023-02-01T03:32:24;79.29;46.02;87.40;;
60116;Laerm;62818;49.394;8.686;2023-02-01T03:33:27;79.50;45.83;90.34;;
60116;Laerm;62818;49.394;8.686;2023-02-01T03:34:30;79.16;46.10;87.70;;
60116;Laerm;62818;49.394;8.686;2023-02-01T03:35:40;78.22;46.64;87.66;;
60116;Laerm;62818;49.394;8.686;2023-02-01T03:36:52;78.60;47.14;89.51;;
60116;Laerm;62818;49.394;8.686;2023-02-01T03:39:37;78.65;45.63;90.45;;
60116;Laerm;62818;49.394;8.686;2023-02-01T03:40:42;78.88;45.66;87.22;;
60116;Laerm;62818;49.394;8.686;2023-02-01T03:41:54;78.65;45.33;87.01;;
60116;Laerm;62818;49.394;8.686;2023-02-01T03:43:00;78.59;45.33;86.87;;
60116;Laerm;62818;49.394;8.686;2023-02-01T03:45:33;78.28;45.39;86.96;;
60116;Laerm;62818;49.394;8.686;2023-02-01T03:46:42;77.78;44.97;86.29;;
60116;Laerm;62818;49.394;8.686;2023-02-01T03:47:49;79.23;45.20;87.20;;
60116;Laerm;62818;49.394;8.686;2023-02-01T03:48:54;79.15;48.20;88.36;;
60116;Laerm;62818;49.394;8.686;2023-02-01T03:50:03;78.76;45.66;87.53;;
60116;Laerm;62818;49.394;8.686;2023-02-01T03:51:08;78.58;45.77;87.30;;
60116;Laerm;62818;49.394;8.686;2023-02-01T03:52:17;78.24;45.77;86.61;;
60116;Laerm;62818;49.394;8.686;2023-02-01T03:53:22;79.09;46.78;90.26;;
60116;Laerm;62818;49.394;8.686;2023-02-01T03:54:27;79.23;46.13;87.70;;
60116;Laerm;62818;49.394;8.686;2023-02-01T03:55:30;79.23;45.39;87.59;;
60116;Laerm;62818;49.394;8.686;2023-02-01T03:56:37;79.04;45.04;86.79;;
60116;Laerm;62818;49.394;8.686;2023-02-01T03:57:45;78.16;45.20;86.73;;
60116;Laerm;62818;49.394;8.686;2023-02-01T03:58:48;78.62;45.27;86.77;;
60116;Laerm;62818;49.394;8.686;2023-02-01T04:00:20;77.73;45.54;87.17;;
60116;Laerm;62818;49.394;8.686;2023-02-01T04:01:22;79.21;45.99;87.22;;
60116;Laerm;62818;49.394;8.686;2023-02-01T04:02:22;79.26;46.07;89.21;;
60116;Laerm;62818;49.394;8.686;2023-02-01T04:03:24;79.09;45.51;87.51;;
60116;Laerm;62818;49.394;8.686;2023-02-01T04:04:25;79.41;46.48;87.19;;
60116;Laerm;62818;49.394;8.686;2023-02-01T04:05:26;79.18;45.89;87.82;;
60116;Laerm;62818;49.394;8.686;2023-02-01T04:06:26;79.14;46.15;87.09;;
60116;Laerm;62818;49.394;8.686;2023-02-01T04:07:27;79.17;47.72;89.69;;
60116;Laerm;62818;49.394;8.686;2023-02-01T04:08:27;79.00;47.68;87.18;;
60116;Laerm;62818;49.394;8.686;2023-02-01T04:09:27;78.82;46.15;87.58;;
60116;Laerm;62818;49.394;8.686;2023-02-01T04:10:28;78.86;47.24;87.87;;
60116;Laerm;62818;49.394;8.686;2023-02-01T04:11:29;78.34;46.93;86.36;;
60116;Laerm;62818;49.394;8.686;2023-02-01T04:12:29;78.67;47.81;87.37;;
60116;Laerm;62818;49.394;8.686;2023-02-01T04:13:30;79.06;47.06;88.43;;
60116;Laerm;62818;49.394;8.686;2023-02-01T04:14:30;78.89;46.10;87.26;;
60116;Laerm;62818;49.394;8.686;2023-02-01T04:15:30;78.58;46.38;86.90;;
60116;Laerm;62818;49.394;8.686;2023-02-01T04:16:32;79.02;45.42;88.18;;
60116;Laerm;62818;49.394;8.686;2023-02-01T04:17:33;78.32;45.99;86.36;;
60116;Laerm;62818;49.394;8.686;2023-02-01T04:18:33;79.34;46.45;87.44;;
60116;Laerm;62818;49.394;8.686;2023-02-01T04:19:34;78.42;45.66;86.65;;
60116;Laerm;62818;49.394;8.686;2023-02-01T04:20:34;78.85;45.45;87.37;;
60116;Laerm;62818;49.394;8.686;2023-02-01T04:21:34;78.26;46.55;86.09;;
60116;Laerm;62818;49.394;8.686;2023-02-01T04:22:35;78.71;46.05;86.94;;
60116;Laerm;62818;49.394;8.686;2023-02-01T04:23:35;78.40;45.69;86.42;;
60116;Laerm;62818;49.394;8.686;2023-02-01T04:24:37;77.90;45.48;86.13;;
60116;Laerm;62818;49.394;8.686;2023-02-01T04:25:37;78.77;46.10;89.05;;
60116;Laerm;62818;49.394;8.686;2023-02-01T04:26:38;78.24;47.54;86.32;;
60116;Laerm;62818;49.394;8.686;2023-02-01T04:27:38;78.72;46.30;87.55;;
60116;Laerm;62818;49.394;8.686;2023-02-01T04:28:39;79.40;46.28;90.06;;
60116;Laerm;62818;49.394;8.686;2023-02-01T04:29:39;78.11;47.40;86.74;;
60116;Laerm;62818;49.394;8.686;2023-02-01T04:30:40;78.48;46.18;87.02;;
60116;Laerm;62818;49.394;8.686;2023-02-01T04:31:40;78.84;46.38;87.02;;
60116;Laerm;62818;49.394;8.686;2023-02-01T04:32:41;79.28;45.80;87.87;;
60116;Laerm;62818;49.394;8.686;2023-02-01T04:33:42;79.31;46.73;89.38;;
60116;Laerm;62818;49.394;8.686;2023-02-01T04:34:43;79.25;45.69;87.42;;
60116;Laerm;62818;49.394;8.686;2023-02-01T04:35:43;79.50;45.66;88.22;;
60116;Laerm;62818;49.394;8.686;2023-02-01T04:36:44;78.06;46.38;86.26;;
60116;Laerm;62818;49.394;8.686;2023-02-01T04:37:44;78.82;46.20;88.49;;
60116;Laerm;62818;49.394;8.686;2023-02-01T04:38:45;79.06;47.63;87.06;;
60116;Laerm;62818;49.394;8.686;2023-02-01T04:39:45;78.80;46.20;87.98;;
60116;Laerm;62818;49.394;8.686;2023-02-01T04:40:49;78.95;46.13;89.78;;
60116;Laerm;62818;49.394;8.686;2023-02-01T04:41:49;79.35;45.97;87.35;;
60116;Laerm;62818;49.394;8.686;2023-02-01T04:42:50;78.97;45.86;87.26;;
60116;Laerm;62818;49.394;8.686;2023-02-01T04:43:50;78.86;46.91;87.32;;
60116;Laerm;62818;49.394;8.686;2023-02-01T04:44:52;78.97;46.66;87.11;;
60116;Laerm;62818;49.394;8.686;2023-02-01T04:45:53;79.23;46.69;90.36;;
60116;Laerm;62818;49.394;8.686;2023-02-01T04:46:54;79.57;46.55;91.20;;
60116;Laerm;62818;49.394;8.686;2023-02-01T04:47:54;78.75;46.93;88.04;;
60116;Laerm;62818;49.394;8.686;2023-02-01T04:48:55;78.93;47.32;88.93;;
60116;Laerm;62818;49.394;8.686;2023-02-01T04:49:55;78.83;46.87;87.44;;
60116;Laerm;62818;49.394;8.686;2023-02-01T04:50:56;78.50;47.15;86.82;;
60116;Laerm;62818;49.394;8.686;2023-02-01T04:51:56;78.96;46.45;87.89;;
60116;Laerm;62818;49.394;8.686;2023-02-01T04:52:57;78.30;47.57;86.24;;
60116;Laerm;62818;49.394;8.686;2023-02-01T04:53:57;79.30;46.33;87.37;;
60116;Laerm;62818;49.394;8.686;2023-02-01T04:54:58;78.83;46.59;87.18;;
60116;Laerm;62818;49.394;8.686;2023-02-01T04:56:00;79.07;49.82;86.70;;
60116;Laerm;62818;49.394;8.686;2023-02-01T04:57:00;78.84;46.23;88.29;;
60116;Laerm;62818;49.394;8.686;2023-02-01T04:58:01;78.30;46.59;86.48;;
60116;Laerm;62818;49.394;8.686;2023-02-01T04:59:01;79.06;46.89;87.97;;
60116;Laerm;62818;49.394;8.686;2023-02-01T05:00:09;79.09;47.38;88.56;;
60116;Laerm;62818;49.394;8.686;2023-02-01T05:01:09;79.20;46.82;87.00;;
60116;Laerm;62818;49.394;8.686;2023-02-01T05:02:10;78.70;48.31;86.97;;
60116;Laerm;62818;49.394;8.686;2023-02-01T05:03:10;78.50;47.22;87.12;;
60116;Laerm;62818;49.394;8.686;2023-02-01T05:04:11;79.02;49.49;87.33;;
60116;Laerm;62818;49.394;8.686;2023-02-01T05:05:11;78.54;50.99;87.00;;
60116;Laerm;62818;49.394;8.686;2023-02-01T05:06:12;78.85;46.25;87.22;;
60116;Laerm;62818;49.394;8.686;2023-02-01T05:07:12;78.26;47.98;86.66;;
60116;Laerm;62818;49.394;8.686;2023-02-01T05:08:13;78.12;49.28;86.29;;
60116;Laerm;62818;49.394;8.686;2023-02-01T05:09:13;78.43;48.10;86.77;;
60116;Laerm;62818;49.394;8.686;2023-02-01T05:10:14;78.81;51.83;86.70;;
60116;Laerm;62818;49.394;8.686;2023-02-01T05:11:14;78.69;52.78;87.71;;
60116;Laerm;62818;49.394;8.686;2023-02-01T05:12:34;77.85;48.81;87.05;;
60116;Laerm;62818;49.394;8.686;2023-02-01T05:13:53;77.83;47.57;87.82;;
60116;Laerm;62818;49.394;8.686;2023-02-01T05:14:53;79.43;47.74;87.03;;
60116;Laerm;62818;49.394;8.686;2023-02-01T05:15:54;79.32;50.03;87.77;;
60116;Laerm;62818;49.394;8.686;2023-02-01T05:16:54;78.64;48.58;87.09;;
60116;Laerm;62818;49.394;8.686;2023-02-01T05:17:55;78.82;50.01;87.83;;
60116;Laerm;62818;49.394;8.686;2023-02-01T05:18:55;78.54;49.55;86.56;;
60116;Laerm;62818;49.394;8.686;2023-02-01T05:19:56;78.17;47.34;86.54;;
60116;Laerm;62818;49.394;8.686;2023-02-01T05:20:56;78.90;47.59;88.12;;
60116;Laerm;62818;49.394;8.686;2023-02-01T05:21:57;79.03;49.62;89.29;;
60116;Laerm;62818;49.394;8.686;2023-02-01T05:22:57;79.20;51.93;87.38;;
60116;Laerm;62818;49.394;8.686;2023-02-01T05:23:58;78.56;47.36;87.36;;
60116;Laerm;62818;49.394;8.686;2023-02-01T05:25:10;77.46;51.27;86.31;;
60116;Laerm;62818;49.394;8.686;2023-02-01T05:26:11;78.89;48.26;87.72;;
60116;Laerm;62818;49.394;8.686;2023-02-01T05:27:11;79.29;47.26;90.25;;
60116;Laerm;62818;49.394;8.686;2023-02-01T05:28:12;79.30;50.55;88.40;;
60116;Laerm;62818;49.394;8.686;2023-02-01T05:29:12;78.86;48.69;87.11;;
60116;Laerm;62818;49.394;8.686;2023-02-01T05:30:14;79.08;46.95;89.57;;
60116;Laerm;62818;49.394;8.686;2023-02-01T05:31:14;79.13;49.20;87.99;;
60116;Laerm;62818;49.394;8.686;2023-02-01T05:32:15;79.37;49.33;87.71;;
60116;Laerm;62818;49.394;8.686;2023-02-01T05:33:15;79.24;48.88;90.07;;
60116;Laerm;62818;49.394;8.686;2023-02-01T05:34:16;79.21;50.45;89.62;;
60116;Laerm;62818;49.394;8.686;2023-02-01T05:35:16;78.94;50.91;88.11;;
60116;Laerm;62818;49.394;8.686;2023-02-01T05:36:17;78.84;47.90;87.97;;
60116;Laerm;62818;49.394;8.686;2023-02-01T05:37:17;78.39;48.16;86.64;;
60116;Laerm;62818;49.394;8.686;2023-02-01T05:38:18;78.48;49.11;87.12;;
60116;Laerm;62818;49.394;8.686;2023-02-01T05:39:18;78.20;46.57;86.34;;
60116;Laerm;62818;49.394;8.686;2023-02-01T05:40:19;78.27;48.05;86.47;;
60116;Laerm;62818;49.394;8.686;2023-02-01T05:41:19;79.18;51.50;87.79;;
60116;Laerm;62818;49.394;8.686;2023-02-01T05:42:20;78.40;49.32;86.74;;
60116;Laerm;62818;49.394;8.686;2023-02-01T05:43:20;78.70;47.34;86.79;;
60116;Laerm;62818;49.394;8.686;2023-02-01T05:44:21;79.24;48.15;88.17;;
60116;Laerm;62818;49.394;8.686;2023-02-01T05:45:21;78.17;49.93;86.83;;
60116;Laerm;62818;49.394;8.686;2023-02-01T05:46:23;78.89;47.98;87.87;;
60116;Laerm;62818;49.394;8.686;2023-02-01T05:47:24;78.93;53.10;87.03;;
60116;Laerm;62818;49.394;8.686;2023-02-01T05:48:24;78.90;49.08;87.24;;
60116;Laerm;62818;49.394;8.686;2023-02-01T05:49:25;78.85;50.27;87.43;;
60116;Laerm;62818;49.394;8.686;2023-02-01T05:50:25;78.80;49.30;86.81;;
60116;Laerm;62818;49.394;8.686;2023-02-01T05:51:26;78.73;47.86;87.33;;
60116;Laerm;62818;49.394;8.686;2023-02-01T05:52:26;79.13;49.96;88.98;;
60116;Laerm;62818;49.394;8.686;2023-02-01T05:53:27;78.11;50.37;86.36;;
60116;Laerm;62818;49.394;8.686;2023-02-01T05:54:27;78.76;48.61;87.23;;
60116;Laerm;62818;49.394;8.686;2023-02-01T05:55:27;78.58;47.83;86.73;;
60116;Laerm;62818;49.394;8.686;2023-02-01T05:56:28;78.68;49.66;87.12;;
60116;Laerm;62818;49.394;8.686;2023-02-01T05:57:28;78.22;49.28;86.17;;
60116;Laerm;62818;49.394;8.686;2023-02-01T05:58:30;78.86;50.17;86.90;;
60116;Laerm;62818;49.394;8.686;2023-02-01T05:59:30;78.99;49.24;87.09;;
60116;Laerm;62818;49.394;8.686;2023-02-01T06:00:31;79.39;48.57;87.42;;
60116;Laerm;62818;49.394;8.686;2023-02-01T06:01:32;78.86;49.00;88.98;;
60116;Laerm;62818;49.394;8.686;2023-02-01T06:02:32;78.83;49.75;87.03;;
60116;Laerm;62818;49.394;8.686;2023-02-01T06:03:33;79.17;48.36;88.63;;
60116;Laerm;62818;49.394;8.686;2023-02-01T06:04:34;78.74;48.26;86.86;;
60116;Laerm;62818;49.394;8.686;2023-02-01T06:05:34;78.63;50.88;86.46;;
60116;Laerm;62818;49.394;8.686;2023-02-01T06:06:35;79.07;49.49;87.59;;
60116;Laerm;62818;49.394;8.686;2023-02-01T06:07:37;78.51;48.95;86.35;;
60116;Laerm;62818;49.394;8.686;2023-02-01T06:08:37;78.78;50.70;87.44;;
60116;Laerm;62818;49.394;8.686;2023-02-01T06:09:40;78.94;50.85;87.38;;
60116;Laerm;62818;49.394;8.686;2023-02-01T06:10:41;78.88;48.64;87.55;;
60116;Laerm;62818;49.394;8.686;2023-02-01T06:11:41;79.33;48.90;90.43;;
60116;Laerm;62818;49.394;8.686;2023-02-01T06:12:42;79.31;49.55;87.53;;
60116;Laerm;62818;49.394;8.686;2023-02-01T06:13:42;79.22;49.53;87.96;;
60116;Laerm;62818;49.394;8.686;2023-02-01T06:14:43;79.27;52.68;87.68;;
60116;Laerm;62818;49.394;8.686;2023-02-01T06:15:43;79.26;51.26;87.93;;
60116;Laerm;62818;49.394;8.686;2023-02-01T06:16:44;79.13;48.61;87.19;;
60116;Laerm;62818;49.394;8.686;2023-02-01T06:17:46;79.33;51.22;86.90;;
60116;Laerm;62818;49.394;8.686;2023-02-01T06:18:48;79.21;54.02;87.74;;
60116;Laerm;62818;49.394;8.686;2023-02-01T06:19:48;79.31;49.71;87.84;;
60116;Laerm;62818;49.394;8.686;2023-02-01T06:20:54;79.06;48.34;87.40;;
60116;Laerm;62818;49.394;8.686;2023-02-01T06:21:55;79.76;58.34;90.26;;
60116;Laerm;62818;49.394;8.686;2023-02-01T06:22:55;79.23;51.78;90.04;;
60116;Laerm;62818;49.394;8.686;2023-02-01T06:23:56;79.07;49.11;87.63;;
60116;Laerm;62818;49.394;8.686;2023-02-01T06:24:58;79.03;57.03;87.55;;
60116;Laerm;62818;49.394;8.686;2023-02-01T06:26:05;78.72;50.99;87.38;;
60116;Laerm;62818;49.394;8.686;2023-02-01T06:27:07;78.55;52.76;86.55;;
60116;Laerm;62818;49.394;8.686;2023-02-01T06:28:09;64.07;49.83;82.18;;
60116;Laerm;62818;49.394;8.686;2023-02-01T06:29:10;78.77;51.64;87.13;;